Flight Track Log - Related Links

Times and Time Zones

All times are in EDT time to prevent confusion due to time zone crossing. See the AFL150 flight status page for this flight to view local times or setup timezone preferences in your user account.

Time Position Orientation Groundspeed Altitude Reporting Facility
EDT Latitude Longitude Course Direction KTS MPH feet Rate Location/Type
Fri 05:45:00 AM 56.0913 37.0678 307° West  Level Estimated
Fri 05:46:00 AM 56.1552 36.9127 307° West  Level Estimated
Fri 05:47:00 AM 56.2189 36.7571 306° West  Level Estimated
Fri 05:48:00 AM 56.2824 36.6009 306° West  Level Estimated
Fri 05:49:00 AM 56.3458 36.4443 306° West  Level Estimated
Fri 05:50:00 AM 56.4089 36.2871 306° West  Level Estimated
Fri 05:51:00 AM 56.4718 36.1294 306° West  Level Estimated
Fri 05:52:00 AM 56.5345 35.9711 306° West  Level Estimated
Fri 05:53:00 AM 56.5971 35.8124 306° West  Level Estimated
Fri 05:54:00 AM 56.6594 35.6531 305° West  Level Estimated
Fri 05:55:00 AM 56.7215 35.4933 305° West  Level Estimated
Fri 05:56:00 AM 56.7835 35.3330 305° West  Level Estimated
Fri 05:57:00 AM 56.8452 35.1721 305° West  Level Estimated
Fri 05:58:00 AM 56.9067 35.0107 305° West  Level Estimated
Fri 05:59:00 AM 56.9680 34.8488 305° West  Level Estimated
Fri 06:00:00 AM 57.0290 34.6863 305° West  Level Estimated
Fri 06:01:00 AM 57.0899 34.5233 305° West  Level Estimated
Fri 06:02:00 AM 57.1506 34.3598 304° West  Level Estimated
Fri 06:03:00 AM 57.2110 34.1957 304° West  Level Estimated
Fri 06:04:00 AM 57.2713 34.0311 304° West  Level Estimated
Fri 06:05:00 AM 57.3313 33.8660 304° West  Level Estimated
Fri 06:06:00 AM 57.3911 33.7003 304° West  Level Estimated
Fri 06:07:00 AM 57.4478 33.5422 304° West  Level Estimated
Fri 06:08:00 AM 57.5042 33.3836 304° West  Level Estimated
Fri 06:09:00 AM 57.5605 33.2245 303° West  Level Estimated
Fri 06:10:00 AM 57.6166 33.0649 303° West  Level Estimated
Fri 06:11:00 AM 57.6725 32.9049 303° West  Level Estimated
Fri 06:12:00 AM 57.7282 32.7443 303° West  Level Estimated
Fri 06:13:00 AM 57.7836 32.5832 303° West  Level Estimated
Fri 06:14:00 AM 57.8389 32.4217 303° West  Level Estimated
Fri 06:15:00 AM 57.8940 32.2596 303° West  Level Estimated
Fri 06:16:00 AM 57.9488 32.0971 303° West  Level Estimated
Fri 06:17:00 AM 58.0035 31.9341 302° West  Level Estimated
Fri 06:18:00 AM 58.0579 31.7705 302° West  Level Estimated
Fri 06:19:00 AM 58.1121 31.6065 302° West  Level Estimated
Fri 06:20:00 AM 58.1662 31.4420 302° West  Level Estimated
Fri 06:21:00 AM 58.2200 31.2769 302° West  Level Estimated
Fri 06:22:00 AM 58.2736 31.1114 302° West  Level Estimated
Fri 06:23:00 AM 58.3270 30.9454 302° West  Level Estimated
Fri 06:24:00 AM 58.3801 30.7788 301° West  Level Estimated
Fri 06:25:00 AM 58.4330 30.6118 301° West  Level Estimated
Fri 06:26:00 AM 58.4858 30.4443 301° West  Level Estimated
Fri 06:27:00 AM 58.5383 30.2762 301° West  Level Estimated
Fri 06:28:00 AM 58.5906 30.1077 301° West  Level Estimated
Fri 06:29:00 AM 58.6427 29.9386 301° West  Level Estimated
Fri 06:30:00 AM 58.6945 29.7691 301° West  Level Estimated
Fri 06:31:00 AM 58.7461 29.5990 300° West  Level Estimated
Fri 06:32:00 AM 58.7975 29.4285 300° West  Level Estimated
Fri 06:33:00 AM 58.8487 29.2574 300° West  Level Estimated
Fri 06:34:00 AM 58.8996 29.0858 300° West  Level Estimated
Fri 06:35:00 AM 58.9504 28.9137 300° West  Level Estimated
Fri 06:36:00 AM 59.0008 28.7412 300° West  Level Estimated
Fri 06:37:00 AM 59.0511 28.5681 300° West  Level Estimated
Fri 06:38:00 AM 59.1011 28.3945 299° West  Level Estimated
Fri 06:39:00 AM 59.1509 28.2204 299° West  Level Estimated
Fri 06:40:00 AM 59.2005 28.0458 299° West  Level Estimated
Fri 06:41:00 AM 59.2498 27.8707 299° West  Level Estimated
Fri 06:42:00 AM 59.2989 27.6951 299° West  Level Estimated
Fri 06:43:00 AM 59.3477 27.5189 299° West  Level Estimated
Fri 06:44:00 AM 59.3964 27.3423 298° West  Level Estimated
Fri 06:45:00 AM 59.4447 27.1652 298° West  Level Estimated
Fri 06:46:00 AM 59.4929 26.9875 298° West  Level Estimated
Fri 06:47:00 AM 59.5408 26.8094 298° West  Level Estimated
Fri 06:48:00 AM 59.5884 26.6307 298° West  Level Estimated
Fri 06:49:00 AM 59.6358 26.4516 298° West  Level Estimated
Fri 06:50:00 AM 59.6830 26.2719 298° West  Level Estimated
Fri 06:51:00 AM 59.7299 26.0917 297° West  Level Estimated
Fri 06:52:00 AM 59.7766 25.9111 297° West  Level Estimated
Fri 06:53:00 AM 59.8230 25.7299 297° West  Level Estimated
Fri 06:54:00 AM 59.8691 25.5482 297° West  Level Estimated
Fri 06:55:00 AM 59.9151 25.3660 297° West  Level Estimated
Fri 06:56:00 AM 59.9607 25.1833 297° West  Level Estimated
Fri 06:57:00 AM 60.0061 25.0001 296° West  Level Estimated
Fri 06:58:00 AM 60.0513 24.8164 296° West  Level Estimated
Fri 06:59:00 AM 60.0962 24.6322 296° West  Level Estimated
Fri 07:00:00 AM 60.1409 24.4475 296° West  Level Estimated
Fri 07:01:00 AM 60.1853 24.2623 296° West  Level Estimated
Fri 07:02:00 AM 60.2294 24.0766 296° West  Level Estimated
Fri 07:03:00 AM 60.2733 23.8904 295° West  Level Estimated
Fri 07:04:00 AM 60.3169 23.7037 295° West  Level Estimated
Fri 07:05:00 AM 60.3602 23.5165 295° West  Level Estimated
Fri 07:06:00 AM 60.4033 23.3288 295° West  Level Estimated
Fri 07:07:00 AM 60.4461 23.1406 295° West  Level Estimated
Fri 07:08:00 AM 60.4887 22.9520 295° West  Level Estimated
Fri 07:09:00 AM 60.5310 22.7628 295° West  Level Estimated
Fri 07:10:00 AM 60.5730 22.5731 294° West  Level Estimated
Fri 07:11:00 AM 60.6147 22.3829 294° West  Level Estimated
Fri 07:12:00 AM 60.6562 22.1923 294° West  Level Estimated
Fri 07:13:00 AM 60.6974 22.0012 294° West  Level Estimated
Fri 07:13:49 AM 61.4105 22.4239 314° West 390 449 36,000  Level FlightAware ADS-B
Fri 07:14:00 AM 60.7383 21.8095 294° West  Level Estimated
Fri 07:15:19 AM 61.5225 22.1827 314° West 385 443 36,000  Level FlightAware ADS-B
Fri 07:16:02 AM 61.5738 22.0719 314° West 386 444 36,000  Level FlightAware ADS-B
Fri 07:16:36 AM 61.6161 21.9797 314° West 385 443 36,000  Level FlightAware ADS-B
Fri 07:17:17 AM 61.6664 21.8700 314° West 374 430 36,000  Level FlightAware ADS-B
Fri 07:17:58 AM 61.7157 21.7618 314° West 372 428 36,000  Level FlightAware ADS-B
Fri 07:18:39 AM 61.7641 21.6545 314° West 372 428 36,000  Level FlightAware ADS-B
Fri 07:19:22 AM 61.8108 21.5506 314° West 376 433 36,000 Level FlightAware ADS-B
Fri 07:21:00 AM 61.8892 21.2379 298° West  Level FlightAware Approximate
Fri 07:22:00 AM 61.9368 21.0457 298° West  Level FlightAware Approximate
Fri 07:23:00 AM 61.9842 20.8529 298° West  Level FlightAware Approximate
Fri 07:24:00 AM 62.0313 20.6594 298° West  Level FlightAware Approximate
Fri 07:25:00 AM 62.0782 20.4654 297° West  Level FlightAware Approximate
Fri 07:26:00 AM 62.1247 20.2708 297° West  Level FlightAware Approximate
Fri 07:27:00 AM 62.1710 20.0756 297° West  Level FlightAware Approximate
Fri 07:28:00 AM 62.2170 19.8798 297° West  Level FlightAware Approximate
Fri 07:29:00 AM 62.2628 19.6833 297° West  Level FlightAware Approximate
Fri 07:30:00 AM 62.3082 19.4863 296° West  Level FlightAware Approximate
Fri 07:31:00 AM 62.3534 19.2887 296° West  Level FlightAware Approximate
Fri 07:32:00 AM 62.3983 19.0905 296° West  Level FlightAware Approximate
Fri 07:33:00 AM 62.4429 18.8918 296° West  Level FlightAware Approximate
Fri 07:34:00 AM 62.4873 18.6924 296° West  Level FlightAware Approximate
Fri 07:35:00 AM 62.5313 18.4924 296° West  Level FlightAware Approximate
Fri 07:36:00 AM 62.5751 18.2918 295° West  Level FlightAware Approximate
Fri 07:37:00 AM 62.6185 18.0907 295° West  Level FlightAware Approximate
Fri 07:38:00 AM 62.6617 17.8890 295° West  Level FlightAware Approximate
Fri 07:39:00 AM 62.7046 17.6866 295° West  Level FlightAware Approximate
Fri 07:40:00 AM 62.7472 17.4837 295° West  Level FlightAware Approximate
Fri 07:41:00 AM 62.7895 17.2802 295° West  Level FlightAware Approximate
Fri 07:42:00 AM 62.8315 17.0761 294° West  Level FlightAware Approximate
Fri 07:43:00 AM 62.8732 16.8715 294° West  Level FlightAware Approximate
Fri 07:44:00 AM 62.9147 16.6662 294° West  Level FlightAware Approximate
Fri 07:45:00 AM 62.9558 16.4604 294° West  Level FlightAware Approximate
Fri 07:46:00 AM 62.9966 16.2540 294° West  Level FlightAware Approximate
Fri 07:47:00 AM 63.0371 16.0470 293° West  Level FlightAware Approximate
Fri 07:48:00 AM 63.0773 15.8395 293° West  Level FlightAware Approximate
Fri 07:49:00 AM 63.1172 15.6314 293° West  Level FlightAware Approximate
Fri 07:50:00 AM 63.1568 15.4227 293° West  Level FlightAware Approximate
Fri 07:51:00 AM 63.1962 15.2134 293° West  Level FlightAware Approximate
Fri 07:52:00 AM 63.2351 15.0036 293° West  Level FlightAware Approximate
Fri 07:53:00 AM 63.2738 14.7932 292° West  Level FlightAware Approximate
Fri 07:54:00 AM 63.3122 14.5822 292° West  Level FlightAware Approximate
Fri 07:55:00 AM 63.3502 14.3707 292° West  Level FlightAware Approximate
Fri 07:56:00 AM 63.3880 14.1587 292° West  Level FlightAware Approximate
Fri 07:57:00 AM 63.4254 13.9460 292° West  Level FlightAware Approximate
Fri 07:58:00 AM 63.4625 13.7328 291° West  Level FlightAware Approximate
Fri 07:59:00 AM 63.4993 13.5191 291° West  Level FlightAware Approximate
Fri 08:00:00 AM 63.5358 13.3048 291° West  Level FlightAware Approximate
Fri 08:01:00 AM 63.5719 13.0900 291° West  Level FlightAware Approximate
Fri 08:02:00 AM 63.6078 12.8746 291° West  Level FlightAware Approximate
Fri 08:03:00 AM 63.6433 12.6587 290° West  Level FlightAware Approximate
Fri 08:04:00 AM 63.6785 12.4422 290° West  Level FlightAware Approximate
Fri 08:05:00 AM 63.7133 12.2253 290° West  Level FlightAware Approximate
Fri 08:06:00 AM 63.7478 12.0077 290° West  Level FlightAware Approximate
Fri 08:07:00 AM 63.7821 11.7897 290° West  Level FlightAware Approximate
Fri 08:08:00 AM 63.8159 11.5711 289° West  Level FlightAware Approximate
Fri 08:09:00 AM 63.8495 11.3520 289° West  Level FlightAware Approximate
Fri 08:10:00 AM 63.8827 11.1324 289° West  Level FlightAware Approximate
Fri 08:11:00 AM 63.9156 10.9122 289° West  Level FlightAware Approximate
Fri 08:12:00 AM 63.9481 10.6916 289° West  Level FlightAware Approximate
Fri 08:13:00 AM 63.9803 10.4704 288° West  Level FlightAware Approximate
Fri 08:14:00 AM 64.0122 10.2487 288° West  Level FlightAware Approximate
Fri 08:15:00 AM 64.0437 10.0266 288° West  Level FlightAware Approximate
Fri 08:16:00 AM 64.0749 9.8039 288° West  Level FlightAware Approximate
Fri 08:17:00 AM 64.1057 9.5807 288° West  Level FlightAware Approximate
Fri 08:18:00 AM 64.1362 9.3571 287° West  Level FlightAware Approximate
Fri 08:19:00 AM 64.1664 9.1329 287° West  Level FlightAware Approximate
Fri 08:20:00 AM 64.1962 8.9083 287° West  Level FlightAware Approximate
Fri 08:21:00 AM 64.2257 8.6832 287° West  Level FlightAware Approximate
Fri 08:22:00 AM 64.2548 8.4576 287° West  Level FlightAware Approximate
Fri 08:23:00 AM 64.2836 8.2315 286° West  Level FlightAware Approximate
Fri 08:24:00 AM 64.3120 8.0049 286° West  Level FlightAware Approximate
Fri 08:25:00 AM 64.3401 7.7779 286° West  Level FlightAware Approximate
Fri 08:26:00 AM 64.3678 7.5505 286° West  Level FlightAware Approximate
Fri 08:27:00 AM 64.3952 7.3226 286° West  Level FlightAware Approximate
Fri 08:28:00 AM 64.4222 7.0942 285° West  Level FlightAware Approximate
Fri 08:29:00 AM 64.4489 6.8654 285° West  Level FlightAware Approximate
Fri 08:30:00 AM 64.4752 6.6361 285° West  Level FlightAware Approximate
Fri 08:31:00 AM 64.5011 6.4064 285° West  Level FlightAware Approximate
Fri 08:32:00 AM 64.5267 6.1763 285° West  Level FlightAware Approximate
Fri 08:33:00 AM 64.5519 5.9457 284° West  Level FlightAware Approximate
Fri 08:34:00 AM 64.5768 5.7147 284° West  Level FlightAware Approximate
Fri 08:35:00 AM 64.6013 5.4833 284° West  Level FlightAware Approximate
Fri 08:36:00 AM 64.6255 5.2515 284° West  Level FlightAware Approximate
Fri 08:37:00 AM 64.6492 5.0192 284° West  Level FlightAware Approximate
Fri 08:38:00 AM 64.6727 4.7866 283° West  Level FlightAware Approximate
Fri 08:39:00 AM 64.6957 4.5536 283° West  Level FlightAware Approximate
Fri 08:40:00 AM 64.7184 4.3202 283° West  Level FlightAware Approximate
Fri 08:41:00 AM 64.7407 4.0863 283° West  Level FlightAware Approximate
Fri 08:42:00 AM 64.7627 3.8521 282° West  Level FlightAware Approximate
Fri 08:43:00 AM 64.7842 3.6176 282° West  Level FlightAware Approximate
Fri 08:44:00 AM 64.8054 3.3826 282° West  Level FlightAware Approximate
Fri 08:45:00 AM 64.8263 3.1473 282° West  Level FlightAware Approximate
Fri 08:46:00 AM 64.8467 2.9116 282° West  Level FlightAware Approximate
Fri 08:47:00 AM 64.8668 2.6756 281° West  Level FlightAware Approximate
Fri 08:48:00 AM 64.8865 2.4392 281° West  Level FlightAware Approximate
Fri 08:49:00 AM 64.9059 2.2025 281° West  Level FlightAware Approximate
Fri 08:50:00 AM 64.9249 1.9654 281° West  Level FlightAware Approximate
Fri 08:51:00 AM 64.9434 1.7280 281° West  Level FlightAware Approximate
Fri 08:52:00 AM 64.9616 1.4903 280° West  Level FlightAware Approximate
Fri 08:53:00 AM 64.9795 1.2522 280° West  Level FlightAware Approximate
Fri 08:54:00 AM 64.9969 1.0139 280° West  Level FlightAware Approximate
Fri 08:55:00 AM 65.0140 0.7752 280° West  Level FlightAware Approximate
Fri 08:56:00 AM 65.0307 0.5363 279° West  Level FlightAware Approximate
Fri 08:57:00 AM 65.0470 0.2970 279° West  Level FlightAware Approximate
Fri 08:58:00 AM 65.0629 0.0574 279° West  Level FlightAware Approximate
Fri 08:59:00 AM 65.0785 -0.1824 279° West  Level FlightAware Approximate
Fri 09:00:00 AM 65.0936 -0.4225 279° West  Level FlightAware Approximate
Fri 09:01:00 AM 65.1084 -0.6629 278° West  Level FlightAware Approximate
Fri 09:02:00 AM 65.1228 -0.9035 278° West  Level FlightAware Approximate
Fri 09:03:00 AM 65.1368 -1.1444 278° West  Level FlightAware Approximate
Fri 09:04:00 AM 65.1504 -1.3856 278° West  Level FlightAware Approximate
Fri 09:05:00 AM 65.1636 -1.6270 278° West  Level FlightAware Approximate
Fri 09:06:00 AM 65.1764 -1.8686 277° West  Level FlightAware Approximate
Fri 09:07:00 AM 65.1889 -2.1105 277° West  Level FlightAware Approximate
Fri 09:08:00 AM 65.2010 -2.3526 277° West  Level FlightAware Approximate
Fri 09:09:00 AM 65.2127 -2.5949 277° West  Level FlightAware Approximate
Fri 09:10:00 AM 65.2240 -2.8374 276° West  Level FlightAware Approximate
Fri 09:11:00 AM 65.2350 -3.0801 276° West  Level FlightAware Approximate
Fri 09:12:00 AM 65.2455 -3.3230 276° West  Level FlightAware Approximate
Fri 09:13:00 AM 65.2557 -3.5661 276° West  Level FlightAware Approximate
Fri 09:14:00 AM 65.2655 -3.8094 276° West  Level FlightAware Approximate
Fri 09:15:00 AM 65.2748 -4.0528 275° West  Level FlightAware Approximate
Fri 09:16:00 AM 65.2838 -4.2965 275° West  Level FlightAware Approximate
Fri 09:17:00 AM 65.2924 -4.5402 275° West  Level FlightAware Approximate
Fri 09:18:00 AM 65.3006 -4.7842 275° West  Level FlightAware Approximate
Fri 09:19:00 AM 65.3084 -5.0283 274° West  Level FlightAware Approximate
Fri 09:20:00 AM 65.3158 -5.2725 274° West  Level FlightAware Approximate
Fri 09:21:00 AM 65.3229 -5.5169 274° West  Level FlightAware Approximate
Fri 09:22:00 AM 65.3295 -5.7614 274° West  Level FlightAware Approximate
Fri 09:23:00 AM 65.3357 -6.0060 274° West  Level FlightAware Approximate
Fri 09:24:00 AM 65.3415 -6.2507 273° West  Level FlightAware Approximate
Fri 09:25:00 AM 65.3470 -6.4956 273° West  Level FlightAware Approximate
Fri 09:26:00 AM 65.3520 -6.7405 273° West  Level FlightAware Approximate
Fri 09:27:00 AM 65.3566 -6.9855 273° West  Level FlightAware Approximate
Fri 09:28:00 AM 65.3609 -7.2306 272° West  Level FlightAware Approximate
Fri 09:29:00 AM 65.3647 -7.4758 272° West  Level FlightAware Approximate
Fri 09:30:00 AM 65.3682 -7.7210 272° West  Level FlightAware Approximate
Fri 09:31:00 AM 65.3712 -7.9663 272° West  Level FlightAware Approximate
Fri 09:32:00 AM 65.3739 -8.2117 272° West  Level FlightAware Approximate
Fri 09:33:00 AM 65.3761 -8.4571 271° West  Level FlightAware Approximate
Fri 09:34:00 AM 65.3780 -8.7025 271° West  Level FlightAware Approximate
Fri 09:35:00 AM 65.3794 -8.9480 271° West  Level FlightAware Approximate
Fri 09:36:00 AM 65.3805 -9.1935 271° West  Level FlightAware Approximate
Fri 09:37:00 AM 65.3811 -9.4390 270° West  Level FlightAware Approximate
Fri 09:38:00 AM 65.3814 -9.6845 270° West  Level FlightAware Approximate
Fri 09:39:00 AM 65.3813 -9.9300 270° West  Level FlightAware Approximate
Fri 09:40:00 AM 65.3807 -10.1755 270° West  Level FlightAware Approximate
Fri 09:41:00 AM 65.3798 -10.4210 270° West  Level FlightAware Approximate
Fri 09:42:00 AM 65.3785 -10.6665 269° West  Level FlightAware Approximate
Fri 09:43:00 AM 65.3767 -10.9120 269° West  Level FlightAware Approximate
Fri 09:44:00 AM 65.3746 -11.1574 269° West  Level FlightAware Approximate
Fri 09:45:00 AM 65.3721 -11.4028 269° West  Level FlightAware Approximate
Fri 09:46:00 AM 65.3691 -11.6481 268° West  Level FlightAware Approximate
Fri 09:47:00 AM 65.3658 -11.8933 268° West  Level FlightAware Approximate
Fri 09:48:00 AM 65.3620 -12.1385 268° West  Level FlightAware Approximate
Fri 09:49:00 AM 65.3577 -12.3836 268° West  Level FlightAware Approximate
Fri 09:50:00 AM 65.3531 -12.6287 268° West  Level FlightAware Approximate
Fri 09:51:00 AM 65.3480 -12.8736 267° West  Level FlightAware Approximate
Fri 09:52:00 AM 65.3426 -13.1184 267° West  Level FlightAware Approximate
Fri 09:53:00 AM 65.3368 -13.3632 267° West  Level FlightAware Approximate
Fri 09:54:00 AM 65.3306 -13.6078 267° West  Level FlightAware Approximate
Fri 09:55:00 AM 65.3239 -13.8523 266° West  Level FlightAware Approximate
Fri 09:56:00 AM 65.3169 -14.0967 266° West  Level FlightAware Approximate
Fri 09:57:00 AM 65.3095 -14.3409 266° West  Level FlightAware Approximate
Fri 09:58:00 AM 65.3017 -14.5850 266° West  Level FlightAware Approximate
Fri 09:59:00 AM 65.2935 -14.8290 266° West  Level FlightAware Approximate
Fri 10:00:00 AM 65.2849 -15.0728 265° West  Level FlightAware Approximate
Fri 10:01:00 AM 65.2759 -15.3164 265° West  Level FlightAware Approximate
Fri 10:02:00 AM 65.2666 -15.5599 265° West  Level FlightAware Approximate
Fri 10:03:00 AM 65.2568 -15.8032 265° West  Level FlightAware Approximate
Fri 10:04:00 AM 65.2466 -16.0463 264° West  Level FlightAware Approximate
Fri 10:05:00 AM 65.2361 -16.2892 264° West  Level FlightAware Approximate
Fri 10:06:00 AM 65.2251 -16.5319 264° West  Level FlightAware Approximate
Fri 10:07:00 AM 65.2138 -16.7744 264° West  Level FlightAware Approximate
Fri 10:08:00 AM 65.2020 -17.0167 264° West  Level FlightAware Approximate
Fri 10:09:00 AM 65.1899 -17.2588 263° West  Level FlightAware Approximate
Fri 10:10:00 AM 65.1774 -17.5007 263° West  Level FlightAware Approximate
Fri 10:11:00 AM 65.1645 -17.7423 263° West  Level FlightAware Approximate
Fri 10:12:00 AM 65.1512 -17.9837 263° West  Level FlightAware Approximate
Fri 10:13:00 AM 65.1376 -18.2248 262° West  Level FlightAware Approximate
Fri 10:14:00 AM 65.1235 -18.4657 262° West  Level FlightAware Approximate
Fri 10:15:00 AM 65.1091 -18.7063 262° West  Level FlightAware Approximate
Fri 10:16:00 AM 65.0942 -18.9467 262° West  Level FlightAware Approximate
Fri 10:17:00 AM 65.0790 -19.1868 262° West  Level FlightAware Approximate
Fri 10:18:00 AM 65.0634 -19.4266 261° West  Level FlightAware Approximate
Fri 10:19:00 AM 65.0474 -19.6662 261° West  Level FlightAware Approximate
Fri 10:20:00 AM 65.0311 -19.9054 261° West  Level FlightAware Approximate
Fri 10:21:00 AM 65.0143 -20.1444 261° West  Level FlightAware Approximate
Fri 10:22:00 AM 64.9972 -20.3830 260° West  Level FlightAware Approximate
Fri 10:23:00 AM 64.9797 -20.6213 260° West  Level FlightAware Approximate
Fri 10:24:00 AM 64.9618 -20.8594 260° West  Level FlightAware Approximate
Fri 10:25:00 AM 64.9435 -21.0971 260° West  Level FlightAware Approximate
Fri 10:26:00 AM 64.9249 -21.3344 260° West  Level FlightAware Approximate
Fri 10:27:00 AM 64.9059 -21.5715 259° West  Level FlightAware Approximate
Fri 10:28:00 AM 64.8865 -21.8082 259° West  Level FlightAware Approximate
Fri 10:29:00 AM 64.8667 -22.0445 259° West  Level FlightAware Approximate
Fri 10:30:00 AM 64.8465 -22.2805 259° West  Level FlightAware Approximate
Fri 10:31:00 AM 64.8260 -22.5162 259° West  Level FlightAware Approximate
Fri 10:32:00 AM 64.8051 -22.7515 258° West  Level FlightAware Approximate
Fri 10:33:00 AM 64.7839 -22.9864 258° West  Level FlightAware Approximate
Fri 10:34:00 AM 64.7622 -23.2209 258° West  Level FlightAware Approximate
Fri 10:35:00 AM 64.7402 -23.4551 258° West  Level FlightAware Approximate
Fri 10:36:00 AM 64.7178 -23.6889 257° West  Level FlightAware Approximate
Fri 10:37:00 AM 64.6951 -23.9223 257° West  Level FlightAware Approximate
Fri 10:38:00 AM 64.6720 -24.1553 257° West  Level FlightAware Approximate
Fri 10:39:00 AM 64.6485 -24.3878 257° West  Level FlightAware Approximate
Fri 10:40:00 AM 64.6247 -24.6201 257° West  Level FlightAware Approximate
Fri 10:41:00 AM 64.6005 -24.8518 256° West  Level FlightAware Approximate
Fri 10:42:00 AM 64.5759 -25.0832 256° West  Level FlightAware Approximate
Fri 10:43:00 AM 64.5510 -25.3141 256° West  Level FlightAware Approximate
Fri 10:44:00 AM 64.5257 -25.5447 256° West  Level FlightAware Approximate
Fri 10:45:00 AM 64.5001 -25.7748 256° West  Level FlightAware Approximate
Fri 10:46:00 AM 64.4741 -26.0044 255° West  Level FlightAware Approximate
Fri 10:47:00 AM 64.4477 -26.2336 255° West  Level FlightAware Approximate
Fri 10:48:00 AM 64.4210 -26.4624 255° West  Level FlightAware Approximate
Fri 10:49:00 AM 64.3939 -26.6907 255° West  Level FlightAware Approximate
Fri 10:50:00 AM 64.3665 -26.9186 255° West  Level FlightAware Approximate
Fri 10:51:00 AM 64.3387 -27.1460 254° West  Level FlightAware Approximate
Fri 10:52:00 AM 64.3105 -27.3730 254° West  Level FlightAware Approximate
Fri 10:53:00 AM 64.2821 -27.5995 254° West  Level FlightAware Approximate
Fri 10:54:00 AM 64.2532 -27.8255 254° West  Level FlightAware Approximate
Fri 10:55:00 AM 64.2241 -28.0510 254° West  Level FlightAware Approximate
Fri 10:56:00 AM 64.1945 -28.2761 253° West  Level FlightAware Approximate
Fri 10:57:00 AM 64.1647 -28.5007 253° West  Level FlightAware Approximate
Fri 10:58:00 AM 64.1344 -28.7248 253° West  Level FlightAware Approximate
Fri 10:59:00 AM 64.1039 -28.9484 253° West  Level FlightAware Approximate
Fri 11:00:00 AM 64.0730 -29.1715 253° West  Level FlightAware Approximate
Fri 11:01:00 AM 64.0417 -29.3941 252° West  Level FlightAware Approximate
Fri 11:02:00 AM 64.0101 -29.6163 252° West  Level FlightAware Approximate
Fri 11:03:00 AM 63.9782 -29.8379 252° West  Level FlightAware Approximate
Fri 11:04:00 AM 63.9460 -30.0590 252° West  Level FlightAware Approximate
Fri 11:05:00 AM 63.9134 -30.2796 252° West  Level FlightAware Approximate
Fri 11:06:00 AM 63.8805 -30.4996 251° West  Level FlightAware Approximate
Fri 11:07:00 AM 63.8472 -30.7192 251° West  Level FlightAware Approximate
Fri 11:08:00 AM 63.8136 -30.9383 251° West  Level FlightAware Approximate
Fri 11:09:00 AM 63.7797 -31.1568 251° West  Level FlightAware Approximate
Fri 11:10:00 AM 63.7454 -31.3748 251° West  Level FlightAware Approximate
Fri 11:11:00 AM 63.7108 -31.5922 250° West  Level FlightAware Approximate
Fri 11:12:00 AM 63.6759 -31.8092 250° West  Level FlightAware Approximate
Fri 11:13:00 AM 63.6407 -32.0255 250° West  Level FlightAware Approximate
Fri 11:14:00 AM 63.6051 -32.2414 250° West  Level FlightAware Approximate
Fri 11:15:00 AM 63.5692 -32.4567 250° West  Level FlightAware Approximate
Fri 11:16:00 AM 63.5330 -32.6715 249° West  Level FlightAware Approximate
Fri 11:17:00 AM 63.4965 -32.8857 249° West  Level FlightAware Approximate
Fri 11:18:00 AM 63.4597 -33.0993 249° West  Level FlightAware Approximate
Fri 11:19:00 AM 63.4225 -33.3125 249° West  Level FlightAware Approximate
Fri 11:20:00 AM 63.3850 -33.5250 249° West  Level FlightAware Approximate
Fri 11:21:00 AM 63.3472 -33.7370 248° West  Level FlightAware Approximate
Fri 11:22:00 AM 63.3091 -33.9485 248° West  Level FlightAware Approximate
Fri 11:23:00 AM 63.2707 -34.1594 248° West  Level FlightAware Approximate
Fri 11:24:00 AM 63.2320 -34.3697 248° West  Level FlightAware Approximate
Fri 11:25:00 AM 63.1929 -34.5794 248° West  Level FlightAware Approximate
Fri 11:26:00 AM 63.1536 -34.7886 247° West  Level FlightAware Approximate
Fri 11:27:00 AM 63.1139 -34.9973 247° West  Level FlightAware Approximate
Fri 11:28:00 AM 63.0740 -35.2053 247° West  Level FlightAware Approximate
Fri 11:29:00 AM 63.0337 -35.4128 247° West  Level FlightAware Approximate
Fri 11:30:00 AM 62.9931 -35.6197 247° West  Level FlightAware Approximate
Fri 11:31:00 AM 62.9523 -35.8260 247° West  Level FlightAware Approximate
Fri 11:32:00 AM 62.9111 -36.0318 246° West  Level FlightAware Approximate
Fri 11:33:00 AM 62.8696 -36.2369 246° West  Level FlightAware Approximate
Fri 11:34:00 AM 62.8279 -36.4415 246° West  Level FlightAware Approximate
Fri 11:35:00 AM 62.7858 -36.6455 246° West  Level FlightAware Approximate
Fri 11:36:00 AM 62.7434 -36.8489 246° West  Level FlightAware Approximate
Fri 11:37:00 AM 62.7007 -37.0517 245° Southwest  Level FlightAware Approximate
Fri 11:38:00 AM 62.6577 -37.2539 245° Southwest  Level FlightAware Approximate
Fri 11:39:00 AM 62.6145 -37.4556 245° Southwest  Level FlightAware Approximate
Fri 11:40:00 AM 62.5709 -37.6566 245° Southwest  Level FlightAware Approximate
Fri 11:41:00 AM 62.5271 -37.8571 245° Southwest  Level FlightAware Approximate
Fri 11:42:00 AM 62.4830 -38.0570 245° Southwest  Level FlightAware Approximate
Fri 11:43:00 AM 62.4386 -38.2562 244° Southwest  Level FlightAware Approximate
Fri 11:44:00 AM 62.3939 -38.4549 244° Southwest  Level FlightAware Approximate
Fri 11:45:00 AM 62.3489 -38.6530 244° Southwest  Level FlightAware Approximate
Fri 11:46:00 AM 62.3037 -38.8505 244° Southwest  Level FlightAware Approximate
Fri 11:47:00 AM 62.2582 -39.0474 244° Southwest  Level FlightAware Approximate
Fri 11:48:00 AM 62.2124 -39.2437 243° Southwest  Level FlightAware Approximate
Fri 11:49:00 AM 62.1663 -39.4394 243° Southwest  Level FlightAware Approximate
Fri 11:50:00 AM 62.1199 -39.6346 243° Southwest  Level FlightAware Approximate
Fri 11:51:00 AM 62.0733 -39.8291 243° Southwest  Level FlightAware Approximate
Fri 11:52:00 AM 62.0264 -40.0230 243° Southwest  Level FlightAware Approximate
Fri 11:53:00 AM 61.9792 -40.2163 243° Southwest  Level FlightAware Approximate
Fri 11:54:00 AM 61.9318 -40.4090 242° Southwest  Level FlightAware Approximate
Fri 11:55:00 AM 61.8841 -40.6012 242° Southwest  Level FlightAware Approximate
Fri 11:56:00 AM 61.8361 -40.7927 242° Southwest  Level FlightAware Approximate
Fri 11:57:00 AM 61.7878 -40.9836 242° Southwest  Level FlightAware Approximate
Fri 11:58:00 AM 61.7393 -41.1739 242° Southwest  Level FlightAware Approximate
Fri 11:59:00 AM 61.6906 -41.3636 242° Southwest  Level FlightAware Approximate
Fri 12:00:00 PM 61.6415 -41.5528 241° Southwest  Level FlightAware Approximate
Fri 12:01:00 PM 61.5922 -41.7413 241° Southwest  Level FlightAware Approximate
Fri 12:02:00 PM 61.5427 -41.9292 241° Southwest  Level FlightAware Approximate
Fri 12:03:00 PM 61.4929 -42.1165 241° Southwest  Level FlightAware Approximate
Fri 12:04:00 PM 61.4428 -42.3032 241° Southwest  Level FlightAware Approximate
Fri 12:05:00 PM 61.3925 -42.4894 241° Southwest  Level FlightAware Approximate
Fri 12:06:00 PM 61.3419 -42.6749 240° Southwest  Level FlightAware Approximate
Fri 12:07:00 PM 61.2911 -42.8598 240° Southwest  Level FlightAware Approximate
Fri 12:08:00 PM 61.2400 -43.0441 240° Southwest  Level FlightAware Approximate
Fri 12:09:00 PM 61.1887 -43.2278 240° Southwest  Level FlightAware Approximate
Fri 12:10:00 PM 61.1371 -43.4110 240° Southwest  Level FlightAware Approximate
Fri 12:11:00 PM 61.0853 -43.5935 240° Southwest  Level FlightAware Approximate
Fri 12:12:00 PM 61.0332 -43.7754 239° Southwest  Level FlightAware Approximate
Fri 12:13:00 PM 60.9809 -43.9567 239° Southwest  Level FlightAware Approximate
Fri 12:14:00 PM 60.9284 -44.1375 239° Southwest  Level FlightAware Approximate
Fri 12:15:00 PM 60.8756 -44.3176 239° Southwest  Level FlightAware Approximate
Fri 12:16:00 PM 60.8225 -44.4971 239° Southwest  Level FlightAware Approximate
Fri 12:17:00 PM 60.7693 -44.6761 239° Southwest  Level FlightAware Approximate
Fri 12:18:00 PM 60.7158 -44.8544 239° Southwest  Level FlightAware Approximate
Fri 12:19:00 PM 60.6620 -45.0322 238° Southwest  Level FlightAware Approximate
Fri 12:20:00 PM 60.6080 -45.2093 238° Southwest  Level FlightAware Approximate
Fri 12:21:00 PM 60.5538 -45.3859 238° Southwest  Level FlightAware Approximate
Fri 12:22:00 PM 60.4994 -45.5619 238° Southwest  Level FlightAware Approximate
Fri 12:23:00 PM 60.4447 -45.7373 238° Southwest  Level FlightAware Approximate
Fri 12:24:00 PM 60.3898 -45.9120 238° Southwest  Level FlightAware Approximate
Fri 12:25:00 PM 60.3346 -46.0863 237° Southwest  Level FlightAware Approximate
Fri 12:26:00 PM 60.2793 -46.2599 237° Southwest  Level FlightAware Approximate
Fri 12:27:00 PM 60.2237 -46.4329 237° Southwest  Level FlightAware Approximate
Fri 12:28:00 PM 60.1679 -46.6053 237° Southwest  Level FlightAware Approximate
Fri 12:29:00 PM 60.1119 -46.7772 237° Southwest  Level FlightAware Approximate
Fri 12:30:00 PM 60.0556 -46.9484 237° Southwest  Level FlightAware Approximate
Fri 12:31:00 PM 59.9991 -47.1191 237° Southwest  Level FlightAware Approximate
Fri 12:32:00 PM 59.9425 -47.2893 236° Southwest  Level FlightAware Approximate
Fri 12:33:00 PM 59.8857 -47.4590 236° Southwest  Level FlightAware Approximate
Fri 12:34:00 PM 59.8286 -47.6281 236° Southwest  Level FlightAware Approximate
Fri 12:35:00 PM 59.7714 -47.7966 236° Southwest  Level FlightAware Approximate
Fri 12:36:00 PM 59.7140 -47.9645 236° Southwest  Level FlightAware Approximate
Fri 12:37:00 PM 59.6563 -48.1318 236° Southwest  Level FlightAware Approximate
Fri 12:38:00 PM 59.5984 -48.2986 236° Southwest  Level FlightAware Approximate
Fri 12:39:00 PM 59.5403 -48.4648 235° Southwest  Level FlightAware Approximate
Fri 12:40:00 PM 59.4820 -48.6304 235° Southwest  Level FlightAware Approximate
Fri 12:41:00 PM 59.4235 -48.7955 235° Southwest  Level FlightAware Approximate
Fri 12:42:00 PM 59.3648 -48.9600 235° Southwest  Level FlightAware Approximate
Fri 12:43:00 PM 59.3059 -49.1239 235° Southwest  Level FlightAware Approximate
Fri 12:44:00 PM 59.2467 -49.2872 235° Southwest  Level FlightAware Approximate
Fri 12:45:00 PM 59.1874 -49.4500 235° Southwest  Level FlightAware Approximate
Fri 12:46:00 PM 59.1278 -49.6122 234° Southwest  Level FlightAware Approximate
Fri 12:47:00 PM 59.0681 -49.7739 234° Southwest  Level FlightAware Approximate
Fri 12:48:00 PM 59.0082 -49.9350 234° Southwest  Level FlightAware Approximate
Fri 12:49:00 PM 58.9480 -50.0955 234° Southwest  Level FlightAware Approximate
Fri 12:50:00 PM 58.8877 -50.2555 234° Southwest  Level FlightAware Approximate
Fri 12:51:00 PM 58.8272 -50.4149 234° Southwest  Level FlightAware Approximate
Fri 12:52:00 PM 58.7664 -50.5737 234° Southwest  Level FlightAware Approximate
Fri 12:53:00 PM 58.7055 -50.7320 234° Southwest  Level FlightAware Approximate
Fri 12:54:00 PM 58.6444 -50.8898 233° Southwest  Level FlightAware Approximate
Fri 12:55:00 PM 58.5831 -51.0470 233° Southwest  Level FlightAware Approximate
Fri 12:56:00 PM 58.5216 -51.2036 233° Southwest  Level FlightAware Approximate
Fri 12:57:00 PM 58.4599 -51.3597 233° Southwest  Level FlightAware Approximate
Fri 12:58:00 PM 58.3980 -51.5153 233° Southwest  Level FlightAware Approximate
Fri 12:59:00 PM 58.3205 -51.6642 225° Southwest  Level Estimated
Fri 01:00:00 PM 58.2427 -51.8125 225° Southwest  Level Estimated
Fri 01:01:00 PM 58.1648 -51.9601 225° Southwest  Level Estimated
Fri 01:02:00 PM 58.0868 -52.1071 225° Southwest  Level Estimated
Fri 01:03:00 PM 58.0085 -52.2534 225° Southwest  Level Estimated
Fri 01:04:00 PM 57.9301 -52.3991 225° Southwest  Level Estimated
Fri 01:05:00 PM 57.8516 -52.5442 225° Southwest  Level Estimated
Fri 01:06:00 PM 57.7729 -52.6886 224° Southwest  Level Estimated
Fri 01:07:00 PM 57.6940 -52.8324 224° Southwest  Level Estimated
Fri 01:08:00 PM 57.6149 -52.9756 224° Southwest  Level Estimated
Fri 01:09:00 PM 57.5357 -53.1181 224° Southwest  Level Estimated
Fri 01:10:00 PM 57.4563 -53.2600 224° Southwest  Level Estimated
Fri 01:11:00 PM 57.3768 -53.4014 224° Southwest  Level Estimated
Fri 01:12:00 PM 57.2971 -53.5421 224° Southwest  Level Estimated
Fri 01:13:00 PM 57.2172 -53.6822 224° Southwest  Level Estimated
Fri 01:14:00 PM 57.1372 -53.8217 223° Southwest  Level Estimated
Fri 01:15:00 PM 57.0570 -53.9605 223° Southwest  Level Estimated
Fri 01:16:00 PM 56.9767 -54.0988 223° Southwest  Level Estimated
Fri 01:17:00 PM 56.8963 -54.2365 223° Southwest  Level Estimated
Fri 01:18:00 PM 56.8157 -54.3736 223° Southwest  Level Estimated
Fri 01:18:16 PM 58.6167 -58.6667 222° Southwest 430 495 37,000  Level Gander Center
Fri 01:19:00 PM 56.7349 -54.5101 223° Southwest  Level Estimated
Fri 01:19:16 PM 58.5333 -58.8167 223° Southwest 430 495 37,000  Level Gander Center
Fri 01:20:00 PM 56.6540 -54.6461 223° Southwest  Level Estimated
Fri 01:20:16 PM 58.4500 -58.9833 226° Southwest 430 495 37,000  Level Gander Center
Fri 01:21:00 PM 56.5729 -54.7814 223° Southwest  Level Estimated
Fri 01:21:16 PM 58.3500 -59.1167 215° Southwest 420 483 37,000  Level Gander Center
Fri 01:22:00 PM 56.4917 -54.9162 223° Southwest  Level Estimated
Fri 01:22:16 PM 58.2333 -59.2167 204° Southwest 420 483 37,000  Level Gander Center
Fri 01:23:00 PM 56.4104 -55.0504 222° Southwest  Level Estimated
Fri 01:23:16 PM 58.1333 -59.3500 215° Southwest 430 495 37,000  Level Gander Center
Fri 01:24:16 PM 58.0333 -59.4500 208° Southwest 430 495 37,000  Level Gander Center
Fri 01:25:16 PM 57.9500 -59.5500 213° Southwest 430 495 37,000  Level Gander Center
Fri 01:26:16 PM 57.8333 -59.6833 211° Southwest 430 495 37,000  Level Gander Center
Fri 01:27:16 PM 57.7333 -59.7833 208° Southwest 430 495 37,000  Level Gander Center
Fri 01:28:16 PM 57.6333 -59.9167 216° Southwest 430 495 37,000  Level Gander Center
Fri 01:29:16 PM 57.5167 -60.0167 205° Southwest 430 495 37,000  Level Gander Center
Fri 01:30:16 PM 57.4167 -60.1333 212° Southwest 430 495 37,000  Level Gander Center
Fri 01:31:16 PM 57.3167 -60.2333 208° Southwest 430 495 37,000  Level Gander Center
Fri 01:32:16 PM 57.2000 -60.3333 205° Southwest 430 495 37,000  Level Gander Center
Fri 01:33:16 PM 57.1000 -60.4500 212° Southwest 430 495 37,000  Level Gander Center
Fri 01:34:16 PM 57.0000 -60.5500 209° Southwest 430 495 37,000  Level Gander Center
Fri 01:35:16 PM 56.9000 -60.6667 213° Southwest 400 460 37,000  Level Gander Center
Fri 01:36:16 PM 56.7833 -60.7667 205° Southwest 430 495 37,000  Level Gander Center
Fri 01:37:16 PM 56.6833 -60.8833 213° Southwest 430 495 37,000  Level Gander Center
Fri 01:38:16 PM 56.5667 -60.9833 205° Southwest 430 495 37,000  Level Gander Center
Fri 01:39:16 PM 56.4667 -61.1000 213° Southwest 430 495 37,000  Level Gander Center
Fri 01:40:16 PM 56.3500 -61.2000 205° Southwest 430 495 37,000  Level Gander Center
Fri 01:41:16 PM 56.2500 -61.2833 205° Southwest 430 495 37,000  Level Gander Center
Fri 01:42:16 PM 56.1500 -61.4000 213° Southwest 430 495 37,000  Level Gander Center
Fri 01:43:16 PM 56.0333 -61.4833 202° Southwest 430 495 37,000  Level Gander Center
Fri 01:44:16 PM 55.9333 -61.6167 217° Southwest 430 495 37,000  Level Gander Center
Fri 01:45:16 PM 55.8333 -61.7000 205° Southwest 430 495 37,000  Level Gander Center
Fri 01:46:16 PM 55.7333 -61.7833 205° Southwest 430 495 37,000  Level Gander Center
Fri 01:47:16 PM 55.6167 -61.9000 209° Southwest 430 495 37,000  Level Gander Center
Fri 01:48:17 PM 55.5167 -61.9833 205° Southwest 430 495 37,000  Level Gander Center
Fri 01:49:16 PM 55.4000 -62.1000 210° Southwest 430 495 37,000  Level Gander Center
Fri 01:50:16 PM 55.3000 -62.1833 205° Southwest 430 495 37,000  Level Gander Center
Fri 01:51:16 PM 55.2000 -62.2833 210° Southwest 430 495 37,000  Level Gander Center
Fri 01:52:16 PM 55.0833 -62.3833 206° Southwest 440 506 37,000  Level Gander Center
Fri 01:53:16 PM 54.9833 -62.4833 210° Southwest 430 495 37,000  Level Gander Center
Fri 01:54:16 PM 54.8833 -62.5833 210° Southwest 430 495 37,000  Level Gander Center
Fri 01:55:16 PM 54.7667 -62.6667 202° Southwest 430 495 37,000  Level Gander Center
Fri 01:56:16 PM 54.6500 -62.7833 210° Southwest 430 495 37,000  Level Gander Center
Fri 01:57:16 PM 54.5500 -62.8667 206° Southwest 440 506 37,000  Level Gander Center
Fri 01:58:16 PM 54.4333 -62.9500 203° Southwest 440 506 37,000  Level Gander Center
Fri 01:59:16 PM 54.3333 -63.0667 214° Southwest 440 506 37,000  Level Gander Center
Fri 02:00:16 PM 54.2333 -63.1333 201° Southwest 440 506 37,000 250 Level Gander Center
Fri 02:01:16 PM 54.1167 -63.2500 210° Southwest 430 495 37,500 500 Climbing Gander Center
Fri 02:02:16 PM 54.0167 -63.3333 206° Southwest 440 506 38,000 250 Climbing Gander Center
Fri 02:03:16 PM 53.9000 -63.4333 207° Southwest 440 506 38,000  Level Gander Center
Fri 02:04:16 PM 53.8000 -63.5167 206° Southwest 440 506 38,000  Level Gander Center
Fri 02:05:16 PM 53.6667 -63.6167 204° Southwest 440 506 38,000  Level Gander Center
Fri 02:06:16 PM 53.5667 -63.7000 206° Southwest 440 506 38,000  Level Gander Center
Fri 02:07:16 PM 53.4667 -63.8167 215° Southwest 440 506 38,000  Level Gander Center
Fri 02:08:16 PM 53.3500 -63.8833 199° South 450 518 38,000  Level Gander Center
Fri 02:09:16 PM 53.2500 -64.0000 215° Southwest 440 506 38,000  Level Gander Center
Fri 02:10:16 PM 53.1333 -64.0667 199° South 440 506 38,000  Level Gander Center
Fri 02:11:16 PM 53.0167 -64.1667 207° Southwest 440 506 38,000  Level Gander Center
Fri 02:12:16 PM 52.9000 -64.2500 203° Southwest 440 506 38,000  Level Gander Center
Fri 02:13:16 PM 52.7833 -64.3500 207° Southwest 450 518 38,000  Level Gander Center
Fri 02:14:16 PM 52.6833 -64.4333 207° Southwest 450 518 38,000  Level Gander Center
Fri 02:15:16 PM 52.5667 -64.5333 208° Southwest 450 518 38,000  Level Gander Center
Fri 02:16:16 PM 52.4500 -64.6333 208° Southwest 450 518 38,000  Level Gander Center
Fri 02:17:16 PM 52.3500 -64.7000 202° Southwest 450 518 38,000  Level Gander Center
Fri 02:18:16 PM 52.2167 -64.7833 201° Southwest 450 518 38,000  Level Gander Center
Fri 02:19:16 PM 52.1167 -64.8833 212° Southwest 450 518 38,000  Level Gander Center
Fri 02:20:16 PM 52.0000 -64.9500 199° South 450 518 38,000  Level Gander Center
Fri 02:21:16 PM 51.8833 -65.0500 208° Southwest 450 518 38,000  Level Gander Center
Fri 02:22:16 PM 51.7833 -65.1167 202° Southwest 450 518 38,000  Level Gander Center
Fri 02:23:16 PM 51.6667 -65.2167 208° Southwest 450 518 38,000  Level Gander Center
Fri 02:24:16 PM 51.5500 -65.3167 208° Southwest 450 518 38,000  Level Gander Center
Fri 02:25:16 PM 51.4333 -65.3833 200° South 450 518 38,000  Level Gander Center
Fri 02:26:16 PM 51.3167 -65.4500 200° South 450 518 38,000  Level Gander Center
Fri 02:27:16 PM 51.2000 -65.5333 204° Southwest 450 518 38,000  Level Gander Center
Fri 02:28:16 PM 51.0833 -65.6000 200° South 460 529 38,000  Level Gander Center
Fri 02:29:16 PM 50.9500 -65.6667 197° South 460 529 38,000  Level Gander Center
Fri 02:30:16 PM 50.8333 -65.7667 208° Southwest 460 529 38,000  Level Gander Center
Fri 02:31:16 PM 50.7167 -65.8333 200° South 460 529 38,000  Level Gander Center
Fri 02:32:16 PM 50.6000 -65.9000 200° South 460 529 38,000  Level Gander Center
Fri 02:33:16 PM 50.4833 -65.9667 200° South 460 529 38,000  Level Gander Center
Fri 02:34:16 PM 50.3500 -66.0333 198° South 460 529 38,000  Level Gander Center
Fri 02:35:16 PM 50.2333 -66.1000 200° South 470 541 38,000  Level Gander Center
Fri 02:36:16 PM 50.1167 -66.1667 200° South 460 529 38,000  Level Gander Center
Fri 02:37:16 PM 50.0000 -66.2333 200° South 460 529 38,000  Level Gander Center
Fri 02:38:16 PM 49.8833 -66.2833 195° South 460 529 38,000  Level Gander Center
Fri 02:39:16 PM 49.7500 -66.3500 198° South 460 529 38,000  Level Gander Center
Fri 02:40:16 PM 49.6333 -66.4167 200° South 460 529 38,000  Level Gander Center
Fri 02:41:16 PM 49.5167 -66.4833 200° South 460 529 38,000  Level Gander Center
Fri 02:42:16 PM 49.4000 -66.5500 200° South 460 529 38,000  Level Gander Center
Fri 02:43:16 PM 49.2667 -66.6333 202° Southwest 460 529 38,000  Level Gander Center
Fri 02:44:16 PM 49.1500 -66.7000 200° South 460 529 38,000  Level Gander Center
Fri 02:45:16 PM 49.0167 -66.7667 198° South 460 529 38,000  Level Gander Center
Fri 02:46:16 PM 48.9167 -66.8333 204° Southwest 460 529 38,000  Level Gander Center
Fri 02:47:16 PM 48.7833 -66.8833 194° South 460 529 38,000  Level Gander Center
Fri 02:48:16 PM 48.6500 -66.9500 198° South 460 529 38,000  Level Gander Center
Fri 02:49:16 PM 48.5500 -67.0167 204° Southwest 470 541 38,000  Level Gander Center
Fri 02:50:16 PM 48.4167 -67.0833 198° South 470 541 38,000  Level Gander Center
Fri 02:51:16 PM 48.3000 -67.1333 196° South 460 529 38,000  Level Gander Center
Fri 02:52:16 PM 48.1833 -67.2000 201° Southwest 460 529 38,000  Level Gander Center
Fri 02:53:16 PM 48.0500 -67.2667 198° South 470 541 38,000  Level Gander Center
Fri 02:54:16 PM 47.9167 -67.3500 203° Southwest 470 541 38,000  Level Gander Center
Fri 02:55:16 PM 47.8167 -67.4000 199° South 470 541 38,000  Level Gander Center
Fri 02:56:16 PM 47.7000 -67.4667 201° Southwest 470 541 38,000  Level Gander Center
Fri 02:57:16 PM 47.5500 -67.5167 193° South 470 541 38,000  Level Gander Center
Fri 02:57:53 PM 47.5039 -67.5522 208° Southwest 474 545 38,000  Level Boston Center
Fri 02:59:31 PM 47.2833 -67.6500 197° South 470 541 38,000  Level Moncton Center
Fri 03:00:31 PM 47.1500 -67.7167 199° South 470 541 38,000  Level Moncton Center
Fri 03:04:01 PM 46.7298 -67.9338 198° South 471 542 38,000  Level FlightAware ADS-B
Fri 03:06:05 PM 46.4736 -68.0578 198° South 469 540 38,000  Level FlightAware ADS-B
Fri 03:06:44 PM 46.3955 -68.0953 198° South 469 540 38,000  Level FlightAware ADS-B
Fri 03:07:14 PM 46.3354 -68.1241 198° South 469 540 38,000  Level FlightAware ADS-B
Fri 03:07:47 PM 46.2649 -68.1578 198° South 468 539 38,000  Level FlightAware ADS-B
Fri 03:08:44 PM 46.1499 -68.2126 198° South 464 534 38,000  Level FlightAware ADS-B
Fri 03:09:16 PM 46.0863 -68.2428 198° South 459 528 38,000  Level FlightAware ADS-B
Fri 03:09:49 PM 46.0195 -68.2745 198° South 457 526 38,000  Level FlightAware ADS-B
Fri 03:10:19 PM 45.9584 -68.3034 198° South 456 525 38,000  Level FlightAware ADS-B
Fri 03:10:49 PM 45.8979 -68.3320 198° South 455 524 38,000  Level FlightAware ADS-B
Fri 03:11:28 PM 45.8248 -68.3663 198° South 452 520 38,000  Level FlightAware ADS-B
Fri 03:12:08 PM 45.7420 -68.4052 198° South 450 518 38,000  Level FlightAware ADS-B
Fri 03:12:40 PM 45.6772 -68.4355 198° South 449 517 38,000  Level FlightAware ADS-B
Fri 03:13:11 PM 45.6175 -68.4633 198° South 448 516 38,000  Level FlightAware ADS-B
Fri 03:13:48 PM 45.5472 -68.4961 198° South 448 516 38,000  Level FlightAware ADS-B (EHTW / ENS)
Fri 03:14:19 PM 45.4959 -68.5201 198° South 448 516 38,000  Level FlightAware ADS-B (EHTW / ENS)
Fri 03:14:36 PM 45.4530 -68.5464 211° Southwest 440 506 38,000  Level FlightAware ADS-B
Fri 03:14:41 PM 45.4655 -68.5367 212° Southwest 440 506 38,000  Level FlightAware ADS-B (EGHI / SOU)
Fri 03:15:18 PM 45.3839 -68.6143 215° Southwest 442 509 38,000  Level FlightAware ADS-B (EHTW / ENS)
Fri 03:15:48 PM 45.3307 -68.6662 215° Southwest 445 512 38,000  Level FlightAware ADS-B
Fri 03:16:21 PM 45.2763 -68.7195 215° Southwest 446 513 38,000  Level FlightAware ADS-B (EGHI / SOU)
Fri 03:16:52 PM 45.2233 -68.7709 214° Southwest 447 514 38,000  Level FlightAware ADS-B
Fri 03:17:29 PM 45.1592 -68.8333 214° Southwest 451 519 38,000  Level FlightAware ADS-B (EHTW / ENS)
Fri 03:18:00 PM 45.1115 -68.8794 214° Southwest 455 524 38,000  Level FlightAware ADS-B (EHTW / ENS)
Fri 03:18:30 PM 45.0704 -68.9191 214° Southwest 456 525 38,000  Level FlightAware ADS-B (EHTW / ENS)
Fri 03:19:01 PM 44.9998 -68.9871 214° Southwest 458 527 38,000  Level FlightAware ADS-B (EGHI / SOU)
Fri 03:19:38 PM 44.9355 -69.0489 214° Southwest 460 529 38,000  Level FlightAware ADS-B
Fri 03:20:08 PM 44.8814 -69.1008 214° Southwest 462 532 38,000  Level FlightAware ADS-B (EHTW / ENS)
Fri 03:20:38 PM 44.8331 -69.1468 214° Southwest 462 532 38,000  Level FlightAware ADS-B (EHTW / ENS)
Fri 03:21:10 PM 44.7815 -69.1960 214° Southwest 461 531 38,000  Level FlightAware ADS-B (EHTW / ENS)
Fri 03:21:43 PM 44.7143 -69.2597 214° Southwest 460 529 38,000  Level FlightAware ADS-B
Fri 03:22:14 PM 44.6620 -69.3091 214° Southwest 459 528 38,000  Level FlightAware ADS-B
Fri 03:22:50 PM 44.5956 -69.3719 214° Southwest 460 529 38,000  Level FlightAware ADS-B
Fri 03:23:20 PM 44.5439 -69.4205 214° Southwest 463 533 38,000  Level FlightAware ADS-B (EHTW / ENS)
Fri 03:23:54 PM 44.4826 -69.4783 214° Southwest 465 535 38,000  Level FlightAware ADS-B
Fri 03:24:24 PM 44.4304 -69.5272 214° Southwest 466 536 38,000  Level FlightAware ADS-B
Fri 03:24:57 PM 44.3710 -69.5828 214° Southwest 464 534 38,000  Level FlightAware ADS-B
Fri 03:25:32 PM 44.3094 -69.6403 214° Southwest 464 534 38,000  Level FlightAware ADS-B (EGHI / SOU)
Fri 03:26:11 PM 44.2397 -69.7052 214° Southwest 462 532 38,000  Level FlightAware ADS-B (EGHI / SOU)
Fri 03:26:51 PM 44.1863 -69.7548 214° Southwest 463 533 38,000  Level FlightAware ADS-B (EGHI / SOU)
Fri 03:27:28 PM 44.1457 -69.7925 214° Southwest 463 533 38,000  Level FlightAware ADS-B
Fri 03:27:59 PM 44.1290 -69.8080 214° Southwest 462 532 38,000  Level FlightAware ADS-B (EGHI / SOU)
Fri 03:30:09 PM 43.8162 -70.0952 213° Southwest 459 528 38,000  Level FlightAware ADS-B
Fri 03:30:40 PM 43.7626 -70.1443 214° Southwest 442 509 38,000  Level FlightAware ADS-B
Fri 03:31:10 PM 43.7102 -70.1918 213° Southwest 447 514 38,000  Level FlightAware ADS-B
Fri 03:31:50 PM 43.6422 -70.2539 214° Southwest 444 511 38,000  Level FlightAware ADS-B
Fri 03:32:20 PM 43.5938 -70.2978 213° Southwest 443 510 38,000  Level FlightAware ADS-B
Fri 03:32:59 PM 43.5230 -70.3615 213° Southwest 441 507 38,000  Level FlightAware ADS-B
Fri 03:33:31 PM 43.4696 -70.4097 213° Southwest 441 507 38,000  Level FlightAware ADS-B
Fri 03:34:01 PM 43.4184 -70.4557 213° Southwest 439 505 38,000  Level FlightAware ADS-B
Fri 03:34:31 PM 43.3676 -70.5013 213° Southwest 439 505 38,000  Level FlightAware ADS-B
Fri 03:35:04 PM 43.3121 -70.5511 213° Southwest 439 505 38,000  Level FlightAware ADS-B
Fri 03:36:00 PM 43.2137 -70.6392 213° Southwest 444 511 38,000  Level FlightAware ADS-B
Fri 03:36:38 PM 43.1523 -70.6938 213° Southwest 445 512 38,000  Level FlightAware ADS-B
Fri 03:37:13 PM 43.0920 -70.7473 213° Southwest 444 511 38,000  Level FlightAware ADS-B
Fri 03:37:43 PM 43.0381 -70.7950 213° Southwest 444 511 38,000  Level FlightAware ADS-B
Fri 03:38:13 PM 42.9890 -70.8384 213° Southwest 445 512 38,000  Level FlightAware ADS-B
Fri 03:38:44 PM 42.9321 -70.8886 213° Southwest 442 509 38,000  Level FlightAware ADS-B
Fri 03:39:24 PM 42.8656 -70.9472 213° Southwest 441 507 38,000  Level FlightAware ADS-B
Fri 03:39:54 PM 42.8138 -70.9926 213° Southwest 441 507 38,000  Level FlightAware ADS-B
Fri 03:40:29 PM 42.7523 -71.0467 213° Southwest 441 507 38,000  Level FlightAware ADS-B
Fri 03:40:59 PM 42.7040 -71.0952 218° Southwest 436 502 38,000  Level FlightAware ADS-B
Fri 03:41:32 PM 42.6515 -71.1515 219° Southwest 430 495 38,000  Level FlightAware ADS-B
Fri 03:41:53 PM 42.6194 -71.1850 218° Southwest 437 503 38,000  Level FlightAware ADS-B
Fri 03:42:33 PM 42.5539 -71.2522 217° Southwest 441 507 38,000  Level FlightAware ADS-B
Fri 03:43:04 PM 42.5058 -71.3011 217° Southwest 446 513 38,000  Level FlightAware ADS-B
Fri 03:43:37 PM 42.4474 -71.3605 218° Southwest 443 510 38,000  Level FlightAware ADS-B
Fri 03:44:08 PM 42.4679 -71.3397 217° Southwest 450 518 38,000  Level FlightAware ADS-B (KOWD)
Fri 03:44:44 PM 42.3413 -71.4682 217° Southwest 447 514 38,000  Level FlightAware ADS-B
Fri 03:45:14 PM 42.2880 -71.5220 217° Southwest 446 513 38,000  Level FlightAware ADS-B
Fri 03:45:44 PM 42.2404 -71.5700 217° Southwest 446 513 38,000  Level FlightAware ADS-B
Fri 03:46:15 PM 42.1909 -71.6197 217° Southwest 445 512 38,000  Level FlightAware ADS-B
Fri 03:46:45 PM 42.1410 -71.6697 217° Southwest 443 510 38,000  Level FlightAware ADS-B
Fri 03:47:15 PM 42.0943 -71.7166 217° Southwest 439 505 38,000  Level FlightAware ADS-B
Fri 03:47:45 PM 42.0410 -71.7699 217° Southwest 436 502 38,000  Level FlightAware ADS-B
Fri 03:48:20 PM 41.9886 -71.8222 217° Southwest 435 501 38,000  Level FlightAware ADS-B (KSNC)
Fri 03:48:53 PM 41.9309 -71.8796 217° Southwest 433 498 38,000  Level FlightAware ADS-B
Fri 03:49:25 PM 41.8796 -71.9305 217° Southwest 431 496 38,000  Level FlightAware ADS-B (KSNC)
Fri 03:49:55 PM 41.8309 -71.9789 217° Southwest 430 495 38,000  Level FlightAware ADS-B
Fri 03:50:25 PM 41.7825 -72.0269 217° Southwest 430 495 38,000  Level FlightAware ADS-B (KSNC)
Fri 03:50:55 PM 41.7367 -72.0720 216° Southwest 431 496 38,000  Level FlightAware ADS-B (KSNC)
Fri 03:51:00 PM 41.7432 -72.0656 217° Southwest 432 497 38,000  Level FlightAware ADS-B (KOWD)
Fri 03:51:30 PM 41.6795 -72.1285 217° Southwest 426 490 38,000  Level FlightAware ADS-B
Fri 03:51:54 PM 41.6396 -72.1677 217° Southwest 426 490 38,000  Level FlightAware ADS-B
Fri 03:52:11 PM 41.6131 -72.1937 217° Southwest 426 490 38,000  Level FlightAware ADS-B
Fri 03:52:21 PM 41.5966 -72.2099 217° Southwest 434 499 38,000  Level FlightAware ADS-B (KSNC)
Fri 03:52:55 PM 41.5437 -72.2618 216° Southwest 432 497 38,000  Level FlightAware ADS-B
Fri 03:53:16 PM 41.5084 -72.2963 217° Southwest 426 490 38,000  Level FlightAware ADS-B
Fri 03:53:47 PM 41.4586 -72.3450 216° Southwest 428 493 38,000  Level FlightAware ADS-B
Fri 03:54:17 PM 41.4120 -72.3904 216° Southwest 428 493 38,000  Level FlightAware ADS-B
Fri 03:54:50 PM 41.3585 -72.4425 216° Southwest 429 494 38,000  Level FlightAware ADS-B (KSNC)
Fri 03:55:24 PM 41.3100 -72.4895 216° Southwest 431 496 38,000  Level FlightAware ADS-B (KSNC)
Fri 03:56:03 PM 41.2410 -72.5565 216° Southwest 432 497 38,000  Level FlightAware ADS-B (KSNC)
Fri 03:56:35 PM 41.1965 -72.5996 216° Southwest 431 496 38,000  Level FlightAware ADS-B
Fri 03:57:11 PM 41.1307 -72.6630 216° Southwest 429 494 38,000  Level FlightAware ADS-B (KSNC)
Fri 03:57:43 PM 41.0804 -72.7115 216° Southwest 429 494 38,000  Level FlightAware ADS-B (KSNC)
Fri 03:58:21 PM 41.0197 -72.7698 216° Southwest 430 495 38,000  Level FlightAware ADS-B (KSNC)
Fri 03:58:52 PM 40.9699 -72.8176 216° Southwest 430 495 38,000  Level FlightAware ADS-B (KSNC)
Fri 03:59:26 PM 40.9146 -72.8704 216° Southwest 430 495 38,000  Level FlightAware ADS-B (KSNC)
Fri 03:59:56 PM 40.8670 -72.9161 216° Southwest 429 494 38,000  Level FlightAware ADS-B (KSNC)
Fri 04:00:33 PM 40.8067 -72.9734 216° Southwest 428 493 38,000  Level FlightAware ADS-B (KSNC)
Fri 04:01:03 PM 40.7593 -73.0184 216° Southwest 424 488 38,000  Level FlightAware ADS-B (KSNC)
Fri 04:01:48 PM 40.6874 -73.0865 216° Southwest 423 487 38,000  Level FlightAware ADS-B (KSNC)
Fri 04:02:18 PM 40.6429 -73.1287 216° Southwest 424 488 38,000  Level FlightAware ADS-B (KSNC)
Fri 04:02:54 PM 40.5824 -73.1860 216° Southwest 423 487 38,000  Level FlightAware ADS-B
Fri 04:03:28 PM 40.5293 -73.2361 216° Southwest 426 490 38,000  Level FlightAware ADS-B (KSNC)
Fri 04:04:01 PM 40.4746 -73.2876 216° Southwest 430 495 38,000  Level FlightAware ADS-B (KSNC)
Fri 04:04:36 PM 40.4210 -73.3379 216° Southwest 432 497 38,000  Level FlightAware ADS-B (KSNC)
Fri 04:05:07 PM 40.3694 -73.3864 216° Southwest 434 499 38,000  Level FlightAware ADS-B (KSNC)
Fri 04:05:46 PM 40.3045 -73.4469 216° Southwest 434 499 38,000  Level FlightAware ADS-B (KSNC)
Fri 04:06:19 PM 40.2499 -73.4979 216° Southwest 433 498 38,000  Level FlightAware ADS-B (KSNC)
Fri 04:06:49 PM 40.2081 -73.5368 215° Southwest 433 498 38,000  Level FlightAware ADS-B (KSNC)
Fri 04:07:19 PM 40.1535 -73.5875 215° Southwest 433 498 38,000  Level FlightAware ADS-B (KSNC)
Fri 04:07:52 PM 40.0991 -73.6379 216° Southwest 434 499 38,000  Level FlightAware ADS-B
Fri 04:08:35 PM 40.0297 -73.7022 215° Southwest 435 501 38,000  Level FlightAware ADS-B
Fri 04:09:09 PM 39.9736 -73.7541 215° Southwest 437 503 38,000  Level FlightAware ADS-B
Fri 04:09:53 PM 39.9005 -73.8215 215° Southwest 438 504 38,000  Level FlightAware ADS-B
Fri 04:10:29 PM 39.8413 -73.8760 215° Southwest 435 501 38,000  Level FlightAware ADS-B (KWWD)
Fri 04:11:03 PM 39.7847 -73.9278 215° Southwest 436 502 38,000  Level FlightAware ADS-B
Fri 04:11:36 PM 39.7299 -73.9779 215° Southwest 436 502 38,000  Level FlightAware ADS-B
Fri 04:12:10 PM 39.6748 -74.0283 215° Southwest 435 501 38,000  Level FlightAware ADS-B (KWWD)
Fri 04:12:41 PM 39.6243 -74.0743 215° Southwest 434 499 38,000  Level FlightAware ADS-B (KWWD)
Fri 04:13:16 PM 39.5662 -74.1273 215° Southwest 434 499 38,000  Level FlightAware ADS-B
Fri 04:13:52 PM 39.5073 -74.1806 215° Southwest 434 499 38,000  Level FlightAware ADS-B (KWWD)
Fri 04:14:31 PM 39.4397 -74.2354 211° Southwest 434 499 38,000  Level FlightAware ADS-B (KWWD)
Fri 04:15:12 PM 39.3678 -74.2894 211° Southwest 435 501 38,000  Level FlightAware ADS-B (KWWD)
Fri 04:15:51 PM 39.2985 -74.3425 212° Southwest 435 501 38,000  Level FlightAware ADS-B (KWWD)
Fri 04:16:25 PM 39.2417 -74.3863 211° Southwest 434 499 38,000  Level FlightAware ADS-B (KWWD)
Fri 04:16:56 PM 39.1852 -74.4297 211° Southwest 439 505 38,000  Level FlightAware ADS-B
Fri 04:17:33 PM 39.1210 -74.4791 211° Southwest 438 504 38,000  Level FlightAware ADS-B
Fri 04:18:52 PM 38.9842 -74.5836 211° Southwest 441 507 38,000  Level FlightAware ADS-B
Fri 04:19:30 PM 38.9182 -74.6339 212° Southwest 434 499 38,000  Level FlightAware ADS-B (KWWD)
Fri 04:20:08 PM 38.8515 -74.6848 211° Southwest 435 501 38,000  Level FlightAware ADS-B (KWWD)
Fri 04:20:39 PM 38.7990 -74.7245 211° Southwest 443 510 38,000  Level FlightAware ADS-B (EGBO)
Fri 04:21:11 PM 38.7399 -74.7693 211° Southwest 444 511 38,000  Level FlightAware ADS-B (EGAA / BFS)
Fri 04:21:41 PM 38.6865 -74.8098 211° Southwest 443 510 38,000  Level FlightAware ADS-B (EGAA / BFS)
Fri 04:22:31 PM 38.5995 -74.8751 211° Southwest 437 503 38,000  Level FlightAware ADS-B (EGAA / BFS)
Fri 04:23:03 PM 38.5448 -74.9164 211° Southwest 434 499 38,000  Level FlightAware ADS-B (EGAA / BFS)
Fri 04:23:33 PM 38.4921 -74.9560 211° Southwest 434 499 38,000  Level FlightAware ADS-B (KWWD)
Fri 04:24:03 PM 38.4395 -74.9955 211° Southwest 432 497 38,000  Level FlightAware ADS-B (KWWD)
Fri 04:24:33 PM 38.3881 -75.0342 211° Southwest 434 499 38,000  Level FlightAware ADS-B (EGAA / BFS)
Fri 04:24:47 PM 38.3632 -75.0528 211° Southwest 429 494 38,000  Level FlightAware ADS-B (KWWD)
Fri 04:25:10 PM 38.3253 -75.0810 211° Southwest 430 495 38,000  Level FlightAware ADS-B (KWWD)
Fri 04:25:18 PM 38.3102 -75.0924 211° Southwest 429 494 38,000  Level FlightAware ADS-B (KWWD)
Fri 04:25:51 PM 38.2708 -75.1216 210° Southwest 436 502 38,000  Level FlightAware ADS-B (EGAA / BFS)
Fri 04:26:01 PM 38.2348 -75.1485 211° Southwest 429 494 38,000  Level FlightAware ADS-B (KWWD)
Fri 04:26:23 PM 38.1974 -75.1764 211° Southwest 429 494 38,000  Level FlightAware ADS-B (KWWD)
Fri 04:26:53 PM 38.1456 -75.2149 211° Southwest 428 493 38,000  Level FlightAware ADS-B (KWWD)
Fri 04:27:02 PM 38.1297 -75.2267 211° Southwest 427 491 38,000  Level FlightAware ADS-B (KWWD)
Fri 04:27:11 PM 38.1163 -75.2366 211° Southwest 427 491 38,000  Level FlightAware ADS-B (KWWD)
Fri 04:27:21 PM 38.0975 -75.2505 211° Southwest 427 491 38,000  Level FlightAware ADS-B (KWWD)
Fri 04:27:30 PM 38.0809 -75.2628 211° Southwest 427 491 38,000  Level FlightAware ADS-B (KWWD)
Fri 04:28:04 PM 38.0237 -75.3050 211° Southwest 429 494 38,000  Level FlightAware ADS-B (KWWD)
Fri 04:28:41 PM 37.9577 -75.3539 210° Southwest 436 502 38,000  Level FlightAware ADS-B (EGAA / BFS)
Fri 04:29:23 PM 37.8897 -75.4041 210° Southwest 437 503 38,000  Level FlightAware ADS-B (EGAA / BFS)
Fri 04:29:29 PM 37.8749 -75.4150 211° Southwest 429 494 38,000  Level FlightAware ADS-B (KWWD)
Fri 04:30:01 PM 37.8176 -75.4572 211° Southwest 429 494 38,000  Level FlightAware ADS-B (KWWD)
Fri 04:30:11 PM 37.8006 -75.4697 211° Southwest 429 494 38,000  Level FlightAware ADS-B (KWWD)
Fri 04:30:41 PM 37.7483 -75.5080 210° Southwest 435 501 38,000  Level FlightAware ADS-B (EGAA / BFS)
Fri 04:30:46 PM 37.7405 -75.5137 211° Southwest 428 493 38,000  Level FlightAware ADS-B (KWWD)
Fri 04:31:23 PM 37.6816 -75.5567 210° Southwest 433 498 38,000  Level FlightAware ADS-B (EGAA / BFS)
Fri 04:31:57 PM 37.6178 -75.6033 210° Southwest 431 496 38,000  Level FlightAware ADS-B (EGAA / BFS)
Fri 04:32:28 PM 37.5686 -75.6392 210° Southwest 431 496 38,000  Level FlightAware ADS-B (KWWD)
Fri 04:33:43 PM 37.4431 -75.7331 210° Southwest 441 507 38,000  Level Washington Center
Fri 04:34:43 PM 37.3386 -75.8086 210° Southwest 441 507 38,000  Level Washington Center
Fri 04:35:44 PM 37.2364 -75.8842 210° Southwest 441 507 38,000  Level Washington Center
Fri 04:36:44 PM 37.1319 -75.9592 210° Southwest 436 502 38,000  Level Washington Center
Fri 04:37:43 PM 37.0314 -76.0342 211° Southwest 436 502 38,000  Level Washington Center
Fri 04:38:43 PM 36.9228 -76.1036 207° Southwest 436 502 38,000  Level Washington Center
Fri 04:39:44 PM 36.8200 -76.1783 210° Southwest 436 502 38,000  Level Washington Center
Fri 04:40:45 PM 36.7175 -76.2528 210° Southwest 436 502 38,000  Level Washington Center
Fri 04:41:43 PM 36.6233 -76.3139 208° Southwest 430 495 38,000  Level Washington Center
Fri 04:42:44 PM 36.5083 -76.3672 200° South 435 501 38,000  Level Washington Center
Fri 04:43:44 PM 36.3931 -76.4228 201° Southwest 441 507 38,000  Level Washington Center
Fri 04:44:45 PM 36.2758 -76.4731 199° South 447 514 38,000  Level Washington Center
Fri 04:45:44 PM 36.1608 -76.5283 201° Southwest 447 514 38,000  Level Washington Center
Fri 04:46:44 PM 36.0456 -76.5811 200° South 447 514 38,000  Level Washington Center
Fri 04:47:45 PM 35.9303 -76.6333 200° South 447 514 38,000  Level Washington Center
Fri 04:48:43 PM 35.8150 -76.6883 201° Southwest 447 514 38,000  Level Washington Center
Fri 04:49:43 PM 35.7000 -76.7378 199° South 447 514 38,000  Level Washington Center
Fri 04:50:43 PM 35.5847 -76.7925 201° Southwest 447 514 38,000  Level Washington Center
Fri 04:51:44 PM 35.4694 -76.8417 199° South 447 514 38,000  Level Washington Center
Fri 04:52:45 PM 35.3539 -76.8958 201° Southwest 447 514 38,000  Level Washington Center
Fri 04:53:43 PM 35.2344 -76.9475 199° South 447 514 38,000  Level Washington Center
Fri 04:54:43 PM 35.1169 -77.0014 201° Southwest 447 514 38,000  Level Washington Center
Fri 04:55:44 PM 34.9933 -77.0600 201° Southwest 447 514 38,000  Level Washington Center
Fri 04:56:45 PM 34.9008 -77.1014 200° South 447 514 38,000  Level Washington Center
Fri 04:57:45 PM 34.7625 -77.1619 200° South 447 514 38,000  Level Washington Center
Fri 04:58:43 PM 34.6492 -77.2128 200° South 447 514 38,000  Level Washington Center
Fri 04:59:44 PM 34.5336 -77.2636 200° South 447 514 38,000  Level Washington Center
Fri 05:00:44 PM 34.4181 -77.3142 200° South 447 514 38,000  Level Washington Center
Fri 05:01:45 PM 34.3028 -77.3644 200° South 447 514 38,000  Level Washington Center
Fri 05:03:30 PM 34.1092 -77.4503 200° South 436 502 38,000  Level Jacksonville Center
Fri 05:04:30 PM 33.9800 -77.5061 200° South 436 502 38,000  Level Jacksonville Center
Fri 05:05:30 PM 33.8633 -77.5556 199° South 443 510 38,000  Level Jacksonville Center
Fri 05:06:30 PM 33.7464 -77.6053 199° South 443 510 38,000  Level Jacksonville Center
Fri 05:07:30 PM 33.6419 -77.6514 200° South 448 516 38,000  Level Jacksonville Center
Fri 05:08:30 PM 33.5272 -77.7031 201° Southwest 448 516 38,000  Level Jacksonville Center
Fri 05:09:30 PM 33.4106 -77.7547 200° South 448 516 38,000  Level Jacksonville Center
Fri 05:10:30 PM 33.2956 -77.8036 200° South 448 516 38,000  Level Jacksonville Center
Fri 05:11:30 PM 33.1786 -77.8547 200° South 448 516 38,000  Level Jacksonville Center
Fri 05:12:30 PM 33.0617 -77.9011 198° South 443 510 38,000  Level Jacksonville Center
Fri 05:13:30 PM 32.9428 -77.9547 201° Southwest 443 510 38,000  Level Jacksonville Center
Fri 05:14:30 PM 32.8256 -78.0008 198° South 443 510 38,000  Level Jacksonville Center
Fri 05:15:30 PM 32.7086 -78.0514 200° South 443 510 38,000  Level Jacksonville Center
Fri 05:16:30 PM 32.5933 -78.0994 199° South 443 510 38,000  Level Jacksonville Center
Fri 05:17:30 PM 32.4803 -78.1447 199° South 443 510 38,000  Level Jacksonville Center
Fri 05:18:30 PM 32.3653 -78.1928 199° South 443 510 38,000  Level Jacksonville Center
Fri 05:19:30 PM 32.2381 -78.2508 201° Southwest 443 510 38,000  Level Jacksonville Center
Fri 05:20:30 PM 32.1250 -78.2983 200° South 443 510 38,000  Level Jacksonville Center
Fri 05:21:30 PM 32.0119 -78.3481 200° South 444 511 38,000  Level Jacksonville Center
Fri 05:22:30 PM 31.8947 -78.3953 199° South 444 511 38,000  Level Jacksonville Center
Fri 05:23:30 PM 31.7794 -78.4425 199° South 439 505 38,000  Level Jacksonville Center
Fri 05:24:30 PM 31.6622 -78.4897 199° South 439 505 38,000  Level Jacksonville Center
Fri 05:25:30 PM 31.5489 -78.5364 199° South 444 511 38,000  Level Jacksonville Center
Fri 05:26:30 PM 31.4314 -78.5808 198° South 449 517 38,000  Level Jacksonville Center
Fri 05:27:30 PM 31.3100 -78.6303 199° South 449 517 38,000  Level Jacksonville Center
Fri 05:28:30 PM 31.2067 -78.6617 195° South 436 502 38,000  Level Jacksonville Center
Fri 05:29:30 PM 31.0897 -78.7225 204° Southwest 442 509 38,000  Level Jacksonville Center
Fri 05:30:30 PM 30.9639 -78.7694 198° South 442 509 38,000  Level Jacksonville Center
Fri 05:31:30 PM 30.8464 -78.8133 198° South 444 511 38,000  Level Jacksonville Center
Fri 05:32:30 PM 30.7308 -78.8617 200° South 445 512 38,000  Level Jacksonville Center
Fri 05:34:33 PM 30.5131 -78.9475 199° South 441 507 38,000  Level Miami Center
Fri 05:35:33 PM 30.3956 -78.9933 199° South 436 502 38,000  Level Miami Center
Fri 05:36:33 PM 30.2825 -79.0389 199° South 442 509 38,000  Level Miami Center
Fri 05:37:33 PM 30.1650 -79.0822 198° South 447 514 38,000  Level Miami Center
Fri 05:38:33 PM 30.0517 -79.1253 198° South 440 506 38,000  Level Miami Center
Fri 05:39:33 PM 29.9236 -79.1825 201° Southwest 446 513 38,000  Level Miami Center
Fri 05:40:33 PM 29.8103 -79.2278 199° South 446 513 38,000  Level Miami Center
Fri 05:41:33 PM 29.6989 -79.2756 200° South 439 505 38,000  Level Miami Center
Fri 05:42:33 PM 29.5917 -79.3258 202° Southwest 431 496 38,000  Level Miami Center
Fri 05:43:45 PM 29.4683 -79.3564 192° South 436 502 38,000  Level Miami Center
Fri 05:44:45 PM 29.3297 -79.4078 198° South 436 502 38,000  Level Miami Center
Fri 05:49:49 PM 28.7411 -79.6285 198° South 437 503 38,000  Level FlightAware ADS-B
Fri 05:52:47 PM 28.4281 -79.8056 210° Southwest 418 481 38,000  Level FlightAware ADS-B
Fri 05:53:17 PM 28.3802 -79.8364 210° Southwest 420 483 38,000  Level FlightAware ADS-B
Fri 05:53:48 PM 28.3316 -79.8676 210° Southwest 421 484 38,000  Level FlightAware ADS-B
Fri 05:54:38 PM 28.2422 -79.9247 210° Southwest 421 484 38,000  Level FlightAware ADS-B
Fri 05:55:08 PM 28.1959 -79.9542 210° Southwest 421 484 38,000  Level FlightAware ADS-B
Fri 05:55:41 PM 28.1374 -79.9915 209° Southwest 419 482 38,000  Level FlightAware ADS-B
Fri 05:56:12 PM 28.0843 -80.0253 209° Southwest 420 483 38,000  Level FlightAware ADS-B
Fri 05:56:46 PM 28.0245 -80.0633 209° Southwest 421 484 38,000  Level FlightAware ADS-B
Fri 05:57:28 PM 27.9526 -80.1089 209° Southwest 422 486 38,000  Level FlightAware ADS-B
Fri 05:58:08 PM 27.8842 -80.1523 209° Southwest 423 487 38,000  Level FlightAware ADS-B
Fri 05:58:48 PM 27.8158 -80.1956 209° Southwest 421 484 38,000  Level FlightAware ADS-B
Fri 05:59:28 PM 27.7498 -80.2373 209° Southwest 420 483 38,000  Level FlightAware ADS-B
Fri 06:00:07 PM 27.6817 -80.2804 209° Southwest 421 484 38,000  Level FlightAware ADS-B
Fri 06:00:38 PM 27.6339 -80.3105 209° Southwest 421 484 38,000  Level FlightAware ADS-B
Fri 06:01:08 PM 27.5782 -80.3456 209° Southwest 422 486 38,000  Level FlightAware ADS-B
Fri 06:01:38 PM 27.5276 -80.3774 209° Southwest 423 487 38,000  Level FlightAware ADS-B
Fri 06:02:18 PM 27.4605 -80.4196 209° Southwest 423 487 38,000  Level FlightAware ADS-B
Fri 06:02:48 PM 27.4095 -80.4516 209° Southwest 424 488 38,000  Level FlightAware ADS-B
Fri 06:03:18 PM 27.3561 -80.4850 209° Southwest 424 488 38,000  Level FlightAware ADS-B
Fri 06:03:49 PM 27.3033 -80.5181 209° Southwest 425 489 38,000  Level FlightAware ADS-B
Fri 06:04:28 PM 27.2352 -80.5606 209° Southwest 424 488 38,000  Level FlightAware ADS-B
Fri 06:04:58 PM 27.1837 -80.5928 209° Southwest 423 487 38,000  Level FlightAware ADS-B
Fri 06:05:59 PM 27.0804 -80.6573 209° Southwest 423 487 38,000  Level FlightAware ADS-B
Fri 06:06:48 PM 26.9958 -80.7100 209° Southwest 422 486 38,000  Level FlightAware ADS-B
Fri 06:07:18 PM 26.9477 -80.7398 209° Southwest 422 486 38,000  Level FlightAware ADS-B
Fri 06:07:59 PM 26.8756 -80.7846 209° Southwest 421 484 38,000  Level FlightAware ADS-B
Fri 06:09:58 PM 26.6788 -80.9064 209° Southwest 421 484 38,000  Level FlightAware ADS-B
Fri 06:11:26 PM 26.5219 -81.0033 209° Southwest 422 486 38,000  Level FlightAware ADS-B
Fri 06:13:35 PM 26.3022 -81.1383 209° Southwest 423 487 38,000  Level FlightAware ADS-B
Fri 06:14:45 PM 26.1911 -81.2092 209° Southwest 422 486 38,000  Level Miami Center
Fri 06:15:45 PM 26.0869 -81.2725 209° Southwest 422 486 38,000  Level Miami Center
Fri 06:16:45 PM 25.9847 -81.3358 209° Southwest 422 486 38,000  Level Miami Center
Fri 06:17:45 PM 25.8803 -81.4011 209° Southwest 427 491 38,000  Level Miami Center
Fri 06:18:45 PM 25.7953 -81.4486 207° Southwest 427 491 38,000  Level Miami Center
Fri 06:19:45 PM 25.6739 -81.5247 209° Southwest 427 491 38,000  Level Miami Center
Fri 06:20:45 PM 25.5675 -81.5872 208° Southwest 427 491 38,000  Level Miami Center
Fri 06:21:45 PM 25.4736 -81.6458 209° Southwest 427 491 38,000 -50 Level Miami Center
Fri 06:22:45 PM 25.3586 -81.7169 209° Southwest 427 491 37,900 -500 Descending Miami Center
Fri 06:23:45 PM 25.2564 -81.7772 208° Southwest 427 491 37,000 -1,000 Descending Miami Center
Fri 06:24:45 PM 25.1519 -81.8394 208° Southwest 427 491 35,900 -1,050 Descending Miami Center
Fri 06:25:45 PM 25.0497 -81.8997 208° Southwest 427 491 34,900 -950 Descending Miami Center
Fri 06:26:45 PM 24.9475 -81.9617 209° Southwest 422 486 34,000 -950 Descending Miami Center
Fri 06:27:45 PM 24.8450 -82.0217 208° Southwest 422 486 33,000 -1,000 Descending Miami Center
Fri 06:28:45 PM 24.7386 -82.0833 208° Southwest 427 491 32,000 -1,050 Descending Miami Center
Fri 06:29:45 PM 24.6361 -82.1453 209° Southwest 427 491 30,900 -1,050 Descending Miami Center
Fri 06:30:45 PM 24.5314 -82.2094 209° Southwest 427 491 29,900 -1,000 Descending Miami Center
Fri 06:31:45 PM 24.4208 -82.2708 207° Southwest 427 491 28,900 -1,300 Descending Miami Center
Fri 06:32:45 PM 24.3183 -82.3322 209° Southwest 432 497 27,300 -1,650 Descending Miami Center
Fri 06:33:45 PM 24.2158 -82.3939 209° Southwest 427 491 25,600 -1,550 Descending Miami Center
Fri 06:34:45 PM 24.1239 -82.4467 208° Southwest 421 484 24,200 -1,500 Descending Miami Center
Fri 06:35:45 PM 24.0300 -82.5017 208° Southwest 410 472 22,600 -1,600 Descending Miami Center
Fri 06:37:00 PM 23.8914 -82.4893 177° South  Level Estimated
Fri 06:44:00 PM 23.1131 -82.4029 179° South  Level FlightAware Approximate
Fri 06:45:00 PM 23.0019 -82.4004 179° South  Level FlightAware Approximate
Fri 06:46:00 PM 22.9891 -82.4091 180° South  Level Estimated
Fri 06:47:00 PM 22.9891 -82.4091 180° South  Level Estimated
Fri 06:48:00 PM 22.9891 -82.4091 180° South  Level Estimated
Fri 06:49:00 PM 22.9891 -82.4091 180° South  Level Estimated
Fri 06:50:00 PM 22.9891 -82.4091 180° South  Level Estimated
Fri 06:51:00 PM 22.9891 -82.4091 180° South  Level Estimated
Fri 06:52:00 PM 22.9891 -82.4091 180° South  Level Estimated
Fri 06:53:00 PM 22.9891 -82.4091 180° South  Level Estimated
Fri 06:54:00 PM 22.9891 -82.4091 180° South  Level Estimated
Fri 06:55:00 PM 22.9891 -82.4091 180° South  Level Estimated
Fri 06:56:00 PM 22.9891 -82.4091 180° South  Level Estimated
Fri 06:57:00 PM 22.9891 -82.4091 180° South  Level Estimated
Fri 06:58:00 PM 22.9891 -82.4091 180° South  Level Estimated
Fri 06:59:00 PM 22.9891 -82.4091 180° South  Level Estimated
Fri 07:00:00 PM 22.9891 -82.4091 180° South  Level Estimated
Fri 07:01:00 PM 22.9891 -82.4091 180° South  Level Estimated
Fri 07:02:00 PM 22.9891 -82.4091 180° South  Level Estimated
Fri 07:03:00 PM 22.9891 -82.4091 180° South  Level Estimated
Fri 07:04:00 PM 22.9891 -82.4091 180° South  Level Estimated
Fri 07:05:00 PM 22.9891 -82.4091 180° South  Level Estimated

Login

Don't have an account? Register now (free) for customized features, flight alerts, and more!